Time;durP1;ratioP1;P1;durP2;ratioP2;P2;SDS_P1;SDS_P2;PMS_P1;PMS_P2;Temp;Humidity;BMP_temperature;BMP_pressure;BME280_temperature;BME280_humidity;BME280_pressure;Samples;Min_cycle;Max_cycle;Signal;HPM_P1;HPM_P2
2021/04/12 00:02:20;;;;;;;6.30;2.50;;;6.30;99.70;;;;;;4845411;29;20271;-92
2021/04/12 00:05:09;;;;;;;3.40;2.20;;;6.10;99.90;;;;;;4846370;29;20333;-93
2021/04/12 00:07:53;;;;;;;6.37;2.20;;;6.10;99.90;;;;;;4860736;29;20210;-94
2021/04/12 00:10:37;;;;;;;7.20;2.70;;;6.20;99.90;;;;;;4844086;29;20226;-93
2021/04/12 00:13:13;;;;;;;10.53;2.80;;;6.50;99.70;;;;;;4847144;29;20196;-86
2021/04/12 00:15:52;;;;;;;9.77;2.93;;;6.40;99.70;;;;;;4847652;29;20220;-87
2021/04/12 00:18:37;;;;;;;5.80;2.60;;;6.30;99.90;;;;;;4847167;29;20217;-87
2021/04/12 00:21:24;;;;;;;5.13;3.03;;;6.10;99.90;;;;;;4846099;29;20197;-87
2021/04/12 00:23:54;;;;;;;5.90;3.13;;;6.00;99.90;;;;;;4846789;29;20202;-87
2021/04/12 00:26:44;;;;;;;4.07;2.60;;;5.80;99.90;;;;;;4846536;29;20217;-88
2021/04/12 00:29:23;;;;;;;7.53;2.63;;;5.80;99.90;;;;;;4858820;29;20281;-86
2021/04/12 00:32:20;;;;;;;5.03;3.30;;;5.90;99.90;;;;;;4846651;29;20636;-87
2021/04/12 00:34:54;;;;;;;5.63;3.20;;;6.10;99.90;;;;;;4840611;29;20182;-87
2021/04/12 00:37:33;;;;;;;6.13;3.30;;;6.10;99.90;;;;;;4847290;29;20186;-87
2021/04/12 00:40:01;;;;;;;6.43;3.40;;;5.90;99.90;;;;;;4846936;29;20600;-87
2021/04/12 00:42:49;;;;;;;6.77;2.93;;;5.90;99.90;;;;;;4845923;29;20193;-87
2021/04/12 00:45:45;;;;;;;7.70;3.10;;;5.90;99.90;;;;;;4847661;29;20194;-87
2021/04/12 00:48:32;;;;;;;4.17;2.90;;;5.80;99.90;;;;;;4865333;29;20187;-87
2021/04/12 00:51:36;;;;;;;11.27;4.83;;;5.80;99.90;;;;;;4846426;29;20689;-87
2021/04/12 00:54:23;;;;;;;4.70;3.17;;;5.70;99.90;;;;;;4863605;29;20206;-87
2021/04/12 00:56:56;;;;;;;7.33;3.47;;;5.60;99.90;;;;;;4848765;29;20190;-87
2021/04/12 00:59:37;;;;;;;4.70;3.10;;;5.60;99.90;;;;;;4848454;29;20195;-86
2021/04/12 01:02:28;;;;;;;8.67;3.23;;;5.70;99.90;;;;;;4847343;29;20229;-87
2021/04/12 01:05:05;;;;;;;7.00;3.10;;;5.70;99.90;;;;;;4858948;29;20198;-87
2021/04/12 01:07:55;;;;;;;5.60;3.80;;;5.70;99.90;;;;;;4870837;29;20216;-91
2021/04/12 01:10:41;;;;;;;7.03;3.30;;;5.70;99.90;;;;;;4885406;29;20221;-87
2021/04/12 01:13:25;;;;;;;5.63;3.37;;;5.60;99.90;;;;;;4866845;29;20253;-87
2021/04/12 01:16:06;;;;;;;6.20;3.37;;;5.70;99.90;;;;;;4861303;29;20222;-88
2021/04/12 01:19:02;;;;;;;18.63;8.33;;;5.80;99.90;;;;;;4846880;29;20230;-87
2021/04/12 01:21:52;;;;;;;6.87;3.33;;;5.80;99.90;;;;;;4859450;29;20199;-87
2021/04/12 01:24:55;;;;;;;8.53;3.50;;;5.70;99.90;;;;;;4845474;29;20202;-87
2021/04/12 01:27:39;;;;;;;6.40;3.33;;;5.60;99.90;;;;;;4861020;29;20194;-87
2021/04/12 01:30:41;;;;;;;3.70;2.80;;;5.60;99.90;;;;;;4862951;29;20828;-87
2021/04/12 01:33:37;;;;;;;5.73;3.37;;;5.50;99.90;;;;;;4863349;29;20202;-87
2021/04/12 01:36:18;;;;;;;8.20;3.50;;;5.60;99.90;;;;;;4846400;29;20297;-87
2021/04/12 01:39:09;;;;;;;7.50;3.37;;;5.70;99.90;;;;;;4846883;29;20291;-86
2021/04/12 01:41:53;;;;;;;6.53;3.30;;;5.60;99.90;;;;;;4812609;29;20198;-86
2021/04/12 01:44:45;;;;;;;5.07;2.83;;;5.50;99.90;;;;;;4866264;29;20289;-87
2021/04/12 01:47:48;;;;;;;5.43;3.17;;;5.50;99.90;;;;;;4846672;29;20194;-87
2021/04/12 01:50:29;;;;;;;3.57;2.63;;;5.40;99.90;;;;;;4847233;29;20233;-87
2021/04/12 01:53:13;;;;;;;4.60;2.57;;;5.20;99.90;;;;;;4853549;29;20205;-87
2021/04/12 01:56:06;;;;;;;6.90;3.23;;;5.10;99.90;;;;;;4862640;29;20226;-87
2021/04/12 01:58:57;;;;;;;4.60;2.70;;;5.10;99.90;;;;;;4860693;29;20209;-87
2021/04/12 02:01:46;;;;;;;6.90;3.23;;;5.00;99.90;;;;;;4846703;29;20675;-87
2021/04/12 02:04:36;;;;;;;5.17;3.00;;;5.00;99.90;;;;;;4846561;29;20207;-86
2021/04/12 02:07:14;;;;;;;11.63;3.20;;;5.10;99.90;;;;;;4846583;29;20220;-87
2021/04/12 02:10:03;;;;;;;4.00;2.90;;;5.00;99.90;;;;;;4845037;29;20198;-87
2021/04/12 02:12:59;;;;;;;6.87;3.07;;;4.90;99.90;;;;;;4843968;29;20228;-87
2021/04/12 02:15:44;;;;;;;7.80;3.37;;;5.00;99.90;;;;;;4850521;29;20216;-87
2021/04/12 02:18:44;;;;;;;6.33;3.57;;;5.00;99.90;;;;;;4808640;29;20653;-87
2021/04/12 02:21:37;;;;;;;4.40;2.83;;;5.00;99.90;;;;;;4860463;29;20202;-86
2021/04/12 02:24:30;;;;;;;4.10;2.90;;;5.00;99.90;;;;;;4846931;29;20179;-87
2021/04/12 02:27:09;;;;;;;11.73;3.20;;;5.00;99.90;;;;;;4860122;29;20566;-87
2021/04/12 02:30:05;;;;;;;9.67;3.10;;;5.00;99.90;;;;;;4847332;29;20215;-87
2021/04/12 02:32:43;;;;;;;5.53;3.43;;;4.90;99.90;;;;;;4859969;29;20213;-86
2021/04/12 02:35:36;;;;;;;7.87;3.07;;;4.90;99.90;;;;;;4846904;29;20643;-87
2021/04/12 02:38:37;;;;;;;8.17;2.73;;;4.80;99.90;;;;;;4845671;29;20218;-87
2021/04/12 02:41:05;;;;;;;5.20;2.87;;;4.80;99.90;;;;;;4839104;29;20564;-86
2021/04/12 02:43:40;;;;;;;8.27;3.30;;;4.80;99.90;;;;;;4846687;29;20197;-87
2021/04/12 02:46:48;;;;;;;4.67;2.90;;;4.80;99.90;;;;;;4845400;29;20208;-87
2021/04/12 02:49:52;;;;;;;6.03;3.30;;;4.90;99.90;;;;;;4828553;29;20199;-87
2021/04/12 02:52:50;;;;;;;6.63;3.10;;;4.90;99.90;;;;;;4856711;29;20210;-87
2021/04/12 02:55:33;;;;;;;3.73;2.47;;;4.90;99.90;;;;;;4832282;29;20187;-87
2021/04/12 02:58:30;;;;;;;6.30;3.50;;;4.80;99.90;;;;;;4843591;29;20187;-87
2021/04/12 03:01:21;;;;;;;5.07;2.80;;;4.80;99.90;;;;;;4851830;29;20229;-85
2021/04/12 03:04:20;;;;;;;5.30;3.13;;;4.70;99.90;;;;;;4868473;29;20258;-90
2021/04/12 03:07:24;;;;;;;4.90;2.50;;;4.60;99.90;;;;;;4869026;29;20193;-88
2021/04/12 03:10:02;;;;;;;5.90;3.60;;;4.70;99.90;;;;;;4849288;29;20205;-87
2021/04/12 03:12:45;;;;;;;8.03;3.13;;;4.70;99.90;;;;;;4849008;29;20207;-87
2021/04/12 03:15:37;;;;;;;4.77;3.03;;;4.40;99.90;;;;;;4845762;29;20229;-87
2021/04/12 03:18:31;;;;;;;7.20;3.00;;;4.40;99.90;;;;;;4845234;29;20216;-87
2021/04/12 03:21:24;;;;;;;4.63;3.03;;;4.50;99.90;;;;;;4846114;29;20201;-87
2021/04/12 03:24:15;;;;;;;6.77;3.30;;;4.40;99.90;;;;;;4858852;29;20199;-86
2021/04/12 03:27:03;;;;;;;9.80;3.17;;;4.40;99.90;;;;;;4845558;29;20226;-88
2021/04/12 03:30:06;;;;;;;4.03;3.07;;;4.50;99.90;;;;;;4845202;29;20191;-87
2021/04/12 03:32:43;;;;;;;6.17;3.40;;;4.50;99.90;;;;;;4846110;29;20198;-87
2021/04/12 03:35:14;;;;;;;8.30;3.23;;;4.60;99.90;;;;;;4845253;29;20200;-86
2021/04/12 03:38:03;;;;;;;5.63;3.00;;;4.50;99.90;;;;;;4845286;29;20247;-87
2021/04/12 03:40:34;;;;;;;8.20;3.57;;;4.60;99.90;;;;;;4845720;29;20626;-87
2021/04/12 03:43:29;;;;;;;8.27;3.60;;;4.70;99.90;;;;;;4845143;29;20197;-87
2021/04/12 03:46:13;;;;;;;5.80;3.13;;;4.70;99.90;;;;;;4847029;29;20195;-87
2021/04/12 03:48:59;;;;;;;4.00;3.10;;;4.80;99.90;;;;;;4849582;29;20194;-87
2021/04/12 03:51:43;;;;;;;7.87;3.70;;;4.90;99.90;;;;;;4849666;29;20286;-87
2021/04/12 03:54:17;;;;;;;5.60;3.33;;;4.90;99.90;;;;;;4847223;29;20660;-87
2021/04/12 03:57:20;;;;;;;5.63;3.50;;;4.90;99.90;;;;;;4860844;29;20193;-87
2021/04/12 03:59:58;;;;;;;4.63;3.33;;;4.70;99.90;;;;;;4848716;29;20215;-86
2021/04/12 04:02:35;;;;;;;4.97;3.17;;;4.70;99.90;;;;;;4849251;29;20297;-87
2021/04/12 04:05:20;;;;;;;10.03;3.67;;;4.60;99.90;;;;;;4863782;29;20190;-87
2021/04/12 04:08:20;;;;;;;6.53;3.60;;;4.50;99.90;;;;;;4847636;29;20742;-87
2021/04/12 04:11:04;;;;;;;5.67;3.70;;;4.50;99.90;;;;;;4815423;29;20320;-86
2021/04/12 04:13:58;;;;;;;9.73;3.60;;;4.50;99.90;;;;;;4847645;29;20220;-87
2021/04/12 04:16:58;;;;;;;6.03;3.33;;;4.40;99.90;;;;;;4847248;29;20198;-86
2021/04/12 04:19:34;;;;;;;4.57;3.10;;;4.50;99.90;;;;;;4860704;29;20202;-86
2021/04/12 04:22:25;;;;;;;9.20;3.00;;;4.50;99.90;;;;;;4846957;29;20190;-87
2021/04/12 04:25:03;;;;;;;4.97;3.37;;;4.60;99.90;;;;;;4819772;29;20209;-87
2021/04/12 04:27:57;;;;;;;4.97;3.47;;;4.60;99.90;;;;;;4847016;29;20644;-87
2021/04/12 04:30:30;;;;;;;4.87;3.30;;;4.50;99.90;;;;;;4852955;29;20290;-86
2021/04/12 04:33:37;;;;;;;7.70;4.10;;;4.30;99.90;;;;;;4847466;29;20284;-87
2021/04/12 04:36:38;;;;;;;7.80;3.60;;;4.40;99.90;;;;;;4852803;29;20287;-88
2021/04/12 04:39:22;;;;;;;7.57;3.47;;;4.40;99.90;;;;;;4856335;29;20198;-86
2021/04/12 04:42:28;;;;;;;5.47;3.10;;;4.50;99.90;;;;;;4860563;29;20200;-88
2021/04/12 04:45:14;;;;;;;8.03;3.80;;;4.50;99.90;;;;;;4829391;29;20187;-88
2021/04/12 04:48:07;;;;;;;5.10;3.53;;;4.50;99.90;;;;;;4845556;29;20219;-87
2021/04/12 04:50:57;;;;;;;4.70;3.43;;;4.40;99.90;;;;;;4862565;29;20225;-87
2021/04/12 04:53:33;;;;;;;5.33;3.87;;;4.50;99.90;;;;;;4875482;29;20262;-87
2021/04/12 04:56:17;;;;;;;5.33;3.43;;;4.60;99.90;;;;;;4868279;29;20194;-89
2021/04/12 04:59:15;;;;;;;4.87;3.10;;;4.60;99.90;;;;;;4872177;29;20207;-90
2021/04/12 05:02:09;;;;;;;4.43;3.50;;;4.80;99.90;;;;;;4875436;29;20218;-92
2021/04/12 05:05:11;;;;;;;6.00;4.17;;;4.70;99.90;;;;;;4880566;29;20207;-86
2021/04/12 05:08:17;;;;;;;5.23;3.53;;;4.70;99.90;;;;;;4866311;29;20213;-87
2021/04/12 05:11:03;;;;;;;4.80;3.33;;;4.80;99.90;;;;;;4862134;29;20226;-87
2021/04/12 05:14:03;;;;;;;5.97;3.50;;;5.00;99.90;;;;;;4852818;29;20189;-85
2021/04/12 05:17:06;;;;;;;6.10;3.40;;;5.00;99.90;;;;;;4863184;29;20203;-87
2021/04/12 05:19:57;;;;;;;7.10;3.70;;;4.80;99.90;;;;;;4881605;29;20189;-86
2021/04/12 05:22:57;;;;;;;5.93;3.63;;;4.70;99.90;;;;;;4863058;29;20190;-86
2021/04/12 05:26:02;;;;;;;5.73;3.70;;;4.70;99.90;;;;;;4868201;29;20199;-87
2021/04/12 05:29:02;;;;;;;8.00;4.23;;;4.90;99.90;;;;;;4863526;29;20198;-89
2021/04/12 05:31:55;;;;;;;7.00;3.53;;;4.90;99.90;;;;;;4862755;29;20230;-86
2021/04/12 05:34:39;;;;;;;9.97;3.67;;;4.80;99.90;;;;;;4864001;29;20557;-86
2021/04/12 05:37:24;;;;;;;8.43;4.03;;;4.80;99.90;;;;;;4848790;29;20664;-87
2021/04/12 05:40:10;;;;;;;4.60;2.77;;;4.90;99.90;;;;;;4845154;29;20278;-86
2021/04/12 05:42:35;;;;;;;8.50;3.30;;;4.90;99.90;;;;;;4855998;29;20194;-86
2021/04/12 05:45:34;;;;;;;4.77;2.93;;;4.90;99.90;;;;;;4866129;29;20195;-86
2021/04/12 05:48:38;;;;;;;4.33;2.80;;;4.90;99.90;;;;;;4858868;29;20194;-87
2021/04/12 05:51:26;;;;;;;8.53;3.20;;;4.90;99.90;;;;;;4851286;29;20226;-87
2021/04/12 05:54:19;;;;;;;7.80;3.50;;;4.90;99.90;;;;;;4862472;29;20186;-86
2021/04/12 05:56:56;;;;;;;7.47;3.50;;;4.90;99.90;;;;;;4854895;29;20222;-87
2021/04/12 05:59:30;;;;;;;9.57;3.63;;;4.90;99.90;;;;;;4837326;29;20199;-87
2021/04/12 06:02:37;;;;;;;4.97;3.20;;;5.00;99.90;;;;;;4827189;29;20197;-88
2021/04/12 06:05:21;;;;;;;6.03;2.87;;;5.00;99.90;;;;;;4827505;29;20240;-86
2021/04/12 06:08:21;;;;;;;4.77;2.80;;;5.10;99.90;;;;;;4842638;29;20230;-88
2021/04/12 06:11:16;;;;;;;5.53;2.80;;;5.40;99.90;;;;;;4851684;29;20261;-88
2021/04/12 06:14:19;;;;;;;9.10;3.93;;;5.30;99.90;;;;;;4823431;29;20213;-87
2021/04/12 06:17:23;;;;;;;8.13;3.27;;;5.50;99.90;;;;;;4857295;29;20719;-90
2021/04/12 06:20:28;;;;;;;5.90;3.17;;;5.60;99.90;;;;;;4841421;29;20192;-88
2021/04/12 06:23:34;;;;;;;4.97;3.20;;;5.40;99.90;;;;;;4843807;29;20270;-88
2021/04/12 06:26:19;;;;;;;8.50;6.57;;;5.40;99.90;;;;;;4856736;29;20284;-88
2021/04/12 06:28:52;;;;;;;8.20;5.93;;;5.60;99.90;;;;;;4850699;29;20243;-90
2021/04/12 06:31:56;;;;;;;5.23;3.80;;;5.60;99.90;;;;;;4863170;29;20586;-88
2021/04/12 06:34:52;;;;;;;9.57;3.57;;;5.60;99.90;;;;;;4859633;29;20205;-90
2021/04/12 06:37:42;;;;;;;6.43;3.10;;;5.50;99.90;;;;;;4845394;29;20568;-89
2021/04/12 06:40:24;;;;;;;7.30;3.33;;;5.40;99.90;;;;;;4820278;29;20201;-90
2021/04/12 06:43:18;;;;;;;7.77;4.13;;;5.40;99.90;;;;;;4833426;29;20186;-91
2021/04/12 06:46:14;;;;;;;22.63;7.03;;;5.50;99.90;;;;;;4846273;29;20210;-88
2021/04/12 06:49:09;;;;;;;14.47;3.70;;;5.70;99.90;;;;;;4858265;29;20183;-87
2021/04/12 06:52:24;;;;;;;17.73;5.73;;;5.90;99.90;;;;;;4844167;29;20224;-88
2021/04/12 06:55:05;;;;;;;19.13;7.77;;;5.90;99.90;;;;;;4844830;29;20289;-87
2021/04/12 06:57:52;;;;;;;7.50;3.73;;;5.70;99.90;;;;;;4859143;29;20200;-88
2021/04/12 07:00:36;;;;;;;6.00;4.07;;;5.70;99.90;;;;;;4858382;29;20277;-87
2021/04/12 07:03:34;;;;;;;6.80;3.83;;;5.50;99.90;;;;;;4863480;29;20189;-88
2021/04/12 07:06:15;;;;;;;7.53;3.60;;;5.50;99.90;;;;;;4825675;29;20194;-87
2021/04/12 07:08:53;;;;;;;5.20;3.50;;;5.50;99.90;;;;;;4849023;29;20218;-88
2021/04/12 07:11:52;;;;;;;7.87;3.33;;;5.60;99.90;;;;;;4857131;29;20308;-88
2021/04/12 07:14:47;;;;;;;6.27;3.53;;;5.70;99.90;;;;;;4855372;29;20185;-87
2021/04/12 07:17:40;;;;;;;7.73;3.30;;;5.60;99.90;;;;;;4851606;29;20217;-88
2021/04/12 07:20:36;;;;;;;6.67;3.50;;;5.50;99.90;;;;;;4852116;29;20289;-88
2021/04/12 07:23:38;;;;;;;7.43;3.77;;;5.60;99.90;;;;;;4875174;29;20190;-87
2021/04/12 07:26:10;;;;;;;6.97;3.23;;;5.60;99.90;;;;;;4842179;29;20200;-88
2021/04/12 07:29:00;;;;;;;6.57;3.90;;;5.70;99.90;;;;;;4852199;29;20596;-88
2021/04/12 07:32:20;;;;;;;7.20;3.37;;;5.90;99.90;;;;;;4853343;29;20242;-88
2021/04/12 07:35:04;;;;;;;5.70;2.90;;;5.90;99.90;;;;;;4822407;29;20274;-88
2021/04/12 07:37:57;;;;;;;6.60;3.40;;;6.00;99.90;;;;;;4845281;29;20277;-87
2021/04/12 07:41:10;;;;;;;8.63;3.07;;;6.00;99.90;;;;;;4855551;29;20198;-88
2021/04/12 07:44:07;;;;;;;7.67;3.13;;;6.10;99.90;;;;;;4824197;29;20191;-87
2021/04/12 07:46:53;;;;;;;5.60;3.17;;;6.10;99.90;;;;;;4827937;29;20224;-88
2021/04/12 07:49:39;;;;;;;11.83;5.23;;;6.20;99.90;;;;;;4856531;29;20193;-88
2021/04/12 07:52:23;;;;;;;6.70;3.10;;;6.30;99.90;;;;;;4858762;29;20229;-88
2021/04/12 07:55:01;;;;;;;7.83;3.10;;;6.40;99.90;;;;;;4852805;29;20186;-87
2021/04/12 07:57:41;;;;;;;5.83;2.80;;;6.50;99.90;;;;;;4835234;29;20223;-88
2021/04/12 08:00:13;;;;;;;7.67;2.93;;;6.60;99.90;;;;;;4873891;29;20197;-88
2021/04/12 08:03:03;;;;;;;8.17;2.53;;;6.70;99.90;;;;;;4864122;29;20652;-89
2021/04/12 08:05:45;;;;;;;8.13;3.07;;;6.90;99.90;;;;;;4865173;29;20197;-88
2021/04/12 08:08:26;;;;;;;4.67;2.97;;;7.00;99.90;;;;;;4864404;29;20194;-88
2021/04/12 08:11:10;;;;;;;7.33;2.77;;;7.10;99.90;;;;;;4862385;29;20225;-88
2021/04/12 08:13:57;;;;;;;5.97;2.50;;;7.10;99.90;;;;;;4849912;29;20277;-88
2021/04/12 08:16:38;;;;;;;7.17;2.53;;;7.30;99.90;;;;;;4862544;29;20270;-88
2021/04/12 08:19:56;;;;;;;11.50;4.30;;;7.30;99.90;;;;;;4860160;29;20707;-88
2021/04/12 08:22:53;;;;;;;15.23;6.23;;;7.30;99.90;;;;;;4852129;29;20181;-88
2021/04/12 08:25:56;;;;;;;5.33;2.10;;;7.40;99.90;;;;;;4850795;29;20254;-89
2021/04/12 08:28:45;;;;;;;9.57;2.13;;;7.70;99.90;;;;;;4862785;29;20190;-88
2021/04/12 08:31:48;;;;;;;5.60;1.80;;;7.70;99.00;;;;;;4859309;29;20224;-87
2021/04/12 08:34:49;;;;;;;3.93;1.50;;;7.70;98.10;;;;;;4862298;29;20198;-87
2021/04/12 08:37:51;;;;;;;5.77;1.80;;;7.60;96.10;;;;;;4861881;29;20249;-88
2021/04/12 08:40:41;;;;;;;2.73;1.73;;;7.60;96.80;;;;;;4852877;29;20194;-88
2021/04/12 08:43:52;;;;;;;2.37;1.43;;;7.70;96.90;;;;;;4846953;29;20189;-88
2021/04/12 08:46:57;;;;;;;4.30;1.63;;;7.90;95.90;;;;;;4856482;29;20198;-88
2021/04/12 08:49:53;;;;;;;3.13;1.93;;;7.80;94.50;;;;;;4842047;29;20190;-88
2021/04/12 08:52:40;;;;;;;2.63;1.30;;;7.80;94.90;;;;;;4859125;29;20201;-87
2021/04/12 08:55:38;;;;;;;3.60;1.50;;;8.00;94.10;;;;;;4861488;29;20194;-88
2021/04/12 08:58:23;;;;;;;4.83;1.70;;;8.00;92.80;;;;;;4846191;29;20186;-89
2021/04/12 09:01:25;;;;;;;4.53;1.50;;;7.90;93.40;;;;;;4861049;29;20242;-87
2021/04/12 09:04:14;;;;;;;1.70;1.30;;;8.00;93.60;;;;;;4862243;29;20190;-88
2021/04/12 09:07:17;;;;;;;6.63;1.50;;;8.00;91.80;;;;;;4823100;29;20206;-87
2021/04/12 09:10:00;;;;;;;6.37;1.80;;;8.00;91.90;;;;;;4861703;29;20718;-88
2021/04/12 09:12:39;;;;;;;3.17;1.10;;;7.80;92.10;;;;;;4851540;29;20216;-88
2021/04/12 09:15:26;;;;;;;4.93;1.40;;;7.80;92.70;;;;;;4860454;29;21852;-89
2021/04/12 09:18:21;;;;;;;3.27;1.40;;;7.90;92.40;;;;;;4861297;29;20194;-88
2021/04/12 09:21:26;;;;;;;3.73;1.43;;;8.10;92.60;;;;;;4852739;29;20199;-88
2021/04/12 09:24:17;;;;;;;2.57;1.50;;;8.30;91.40;;;;;;4856157;29;20234;-88
2021/04/12 09:26:45;;;;;;;2.77;2.20;;;8.60;91.00;;;;;;4873422;29;20194;-87
2021/04/12 09:29:45;;;;;;;3.27;1.80;;;8.50;91.40;;;;;;4859334;29;20182;-88
2021/04/12 09:32:38;;;;;;;5.27;2.20;;;8.50;92.00;;;;;;4861042;29;20226;-88
2021/04/12 09:35:10;;;;;;;5.30;1.90;;;8.70;91.90;;;;;;4854366;29;20202;-88
2021/04/12 09:38:13;;;;;;;9.60;2.50;;;8.80;91.20;;;;;;4858228;29;20313;-88
2021/04/12 09:40:57;;;;;;;6.80;1.93;;;8.90;91.40;;;;;;4865375;29;20212;-88
2021/04/12 09:43:45;;;;;;;10.63;2.47;;;8.70;91.60;;;;;;4848580;29;20209;-88
2021/04/12 09:46:39;;;;;;;3.33;2.20;;;8.60;91.40;;;;;;4858447;29;20199;-88
2021/04/12 09:49:40;;;;;;;6.80;2.50;;;8.60;92.10;;;;;;4849161;29;20187;-88
2021/04/12 09:52:44;;;;;;;4.80;2.60;;;8.70;91.40;;;;;;4857025;29;20222;-88
2021/04/12 09:55:28;;;;;;;6.40;2.93;;;9.20;90.80;;;;;;4824067;29;20195;-88
2021/04/12 09:58:32;;;;;;;8.70;2.07;;;9.40;89.20;;;;;;4858866;29;20187;-88
2021/04/12 10:01:13;;;;;;;3.57;2.00;;;9.60;87.10;;;;;;4846648;29;20213;-89
2021/04/12 10:04:18;;;;;;;4.97;2.30;;;9.60;87.40;;;;;;4852483;29;20186;-88
2021/04/12 10:07:12;;;;;;;4.87;2.50;;;9.60;88.40;;;;;;4854995;29;20212;-86
2021/04/12 10:09:55;;;;;;;4.27;2.00;;;9.50;88.50;;;;;;4860063;29;20294;-86
2021/04/12 10:12:43;;;;;;;2.57;2.00;;;9.40;86.00;;;;;;4860091;29;20207;-90
2021/04/12 10:15:38;;;;;;;5.83;2.10;;;9.10;87.00;;;;;;4846843;29;20195;-87
2021/04/12 10:18:30;;;;;;;4.47;2.17;;;8.80;89.70;;;;;;4860898;29;20206;-87
2021/04/12 10:21:09;;;;;;;6.13;2.57;;;8.70;88.50;;;;;;4850900;29;20186;-87
2021/04/12 10:23:36;;;;;;;6.53;2.73;;;8.80;90.40;;;;;;4862217;29;20189;-86
2021/04/12 10:26:07;;;;;;;6.37;2.50;;;8.00;98.50;;;;;;4857168;29;20206;-87
2021/04/12 10:28:36;;;;;;;6.10;2.93;;;6.70;99.90;;;;;;4848179;29;20182;-86
2021/04/12 10:31:14;;;;;;;6.20;3.40;;;6.00;99.90;;;;;;4852323;29;20684;-88
2021/04/12 10:34:17;;;;;;;6.93;3.70;;;5.70;99.90;;;;;;4860497;29;20679;-86
2021/04/12 10:36:58;;;;;;;3.93;3.53;;;5.30;99.90;;;;;;4842108;29;20203;-89
2021/04/12 10:39:37;;;;;;;5.43;4.20;;;5.40;99.90;;;;;;4842201;29;20194;-86
2021/04/12 10:42:29;;;;;;;4.97;3.73;;;5.70;99.90;;;;;;4854900;29;20193;-87
2021/04/12 10:45:12;;;;;;;4.97;3.90;;;6.20;99.90;;;;;;4860646;29;20194;-89
2021/04/12 10:47:56;;;;;;;7.53;4.53;;;6.60;99.90;;;;;;4844659;29;20202;-89
2021/04/12 10:50:25;;;;;;;7.43;4.60;;;7.10;99.90;;;;;;4860062;29;20250;-88
2021/04/12 10:52:50;;;;;;;6.60;4.93;;;7.50;99.90;;;;;;4860223;29;20652;-89
2021/04/12 10:55:28;;;;;;;8.60;5.30;;;7.90;99.90;;;;;;4857028;29;20182;-88
2021/04/12 10:58:16;;;;;;;6.87;4.50;;;8.20;99.90;;;;;;4857235;29;20257;-89
2021/04/12 11:01:08;;;;;;;6.23;4.67;;;8.70;99.90;;;;;;4862254;29;20233;-87
2021/04/12 11:04:02;;;;;;;7.47;4.23;;;9.10;99.90;;;;;;4850779;29;20183;-89
2021/04/12 11:06:33;;;;;;;7.07;4.07;;;9.40;99.90;;;;;;4858982;29;20214;-89
2021/04/12 11:09:05;;;;;;;6.00;4.67;;;9.70;99.90;;;;;;4860290;29;20187;-88
2021/04/12 11:11:44;;;;;;;7.77;5.33;;;9.80;99.90;;;;;;4860464;29;20309;-88
2021/04/12 11:14:23;;;;;;;10.33;5.17;;;9.90;99.90;;;;;;4859765;29;20192;-86
2021/04/12 11:17:08;;;;;;;9.63;6.33;;;9.90;99.90;;;;;;4859998;29;20215;-88
2021/04/12 11:19:43;;;;;;;6.83;5.93;;;10.00;99.90;;;;;;4841877;29;20198;-88
2021/04/12 11:22:55;;;;;;;10.40;6.67;;;9.90;99.90;;;;;;4848893;29;20197;-86
2021/04/12 11:25:29;;;;;;;11.33;7.40;;;9.80;99.90;;;;;;4829864;29;20178;-87
2021/04/12 11:28:01;;;;;;;13.03;6.97;;;9.90;99.90;;;;;;4851981;29;20190;-87
2021/04/12 11:30:27;;;;;;;13.07;7.83;;;9.90;99.90;;;;;;4852464;29;20207;-87
2021/04/12 11:33:15;;;;;;;8.30;6.53;;;9.70;99.90;;;;;;4848581;29;20649;-86
2021/04/12 11:35:58;;;;;;;7.80;5.20;;;9.30;99.90;;;;;;4858911;29;20282;-89
2021/04/12 11:38:30;;;;;;;7.93;5.60;;;8.80;99.90;;;;;;4843553;29;20179;-88
2021/04/12 11:41:17;;;;;;;8.13;6.03;;;8.50;99.90;;;;;;4857532;29;20251;-88
2021/04/12 11:43:48;;;;;;;8.17;5.70;;;8.20;99.90;;;;;;4846405;29;20218;-88
2021/04/12 11:46:29;;;;;;;11.47;7.30;;;8.10;99.90;;;;;;4858176;29;20197;-87
2021/04/12 11:49:13;;;;;;;8.37;6.83;;;8.20;99.90;;;;;;4854643;29;20647;-87
2021/04/12 11:51:57;;;;;;;11.37;7.10;;;8.50;99.90;;;;;;4878126;29;20225;-87
2021/04/12 11:55:06;;;;;;;6.60;5.97;;;9.30;99.90;;;;;;4862979;29;20247;-88
2021/04/12 11:57:56;;;;;;;10.90;6.83;;;9.80;99.90;;;;;;4834927;29;20297;-88
2021/04/12 12:00:34;;;;;;;8.73;6.87;;;11.30;98.70;;;;;;4841488;29;20645;-88
2021/04/12 12:03:14;;;;;;;7.33;5.83;;;13.00;97.10;;;;;;4826383;29;20183;-89
2021/04/12 12:06:28;;;;;;;6.97;6.30;;;14.60;96.40;;;;;;4849380;29;20226;-89
2021/04/12 12:09:08;;;;;;;7.77;5.57;;;16.20;92.50;;;;;;4792767;29;20241;-88
2021/04/12 12:12:20;;;;;;;7.57;5.83;;;17.20;78.10;;;;;;4807574;29;20213;-89
2021/04/12 12:15:23;;;;;;;7.00;6.20;;;17.50;75.50;;;;;;4838675;29;20281;-87
2021/04/12 12:18:08;;;;;;;12.47;6.17;;;17.50;70.80;;;;;;4862891;29;20277;-88
2021/04/12 12:21:04;;;;;;;8.07;6.53;;;17.40;71.50;;;;;;4862797;29;20186;-88
2021/04/12 12:23:48;;;;;;;6.53;5.63;;;17.90;67.10;;;;;;4858582;29;20195;-89
2021/04/12 12:26:34;;;;;;;7.27;5.53;;;18.10;67.50;;;;;;4847853;29;20188;-85
2021/04/12 12:29:12;;;;;;;6.77;5.20;;;17.40;63.60;;;;;;4848465;29;20717;-88
2021/04/12 12:32:00;;;;;;;7.37;5.67;;;16.70;66.00;;;;;;4862986;29;20731;-88
2021/04/12 12:34:52;;;;;;;10.27;6.40;;;16.50;67.30;;;;;;4846805;29;20198;-88
2021/04/12 12:37:44;;;;;;;8.37;5.87;;;16.40;67.70;;;;;;4873991;29;20285;-88
2021/04/12 12:40:28;;;;;;;7.87;5.93;;;15.90;64.90;;;;;;4862929;29;20276;-88
2021/04/12 12:43:03;;;;;;;9.77;6.47;;;14.40;69.00;;;;;;4856438;29;20202;-90
2021/04/12 12:45:32;;;;;;;8.10;5.90;;;14.00;70.90;;;;;;4846810;29;20277;-88
2021/04/12 12:48:03;;;;;;;8.07;6.17;;;14.00;72.20;;;;;;4849868;29;20294;-86
2021/04/12 12:50:54;;;;;;;10.73;5.60;;;13.90;70.10;;;;;;4865448;29;20222;-87
2021/04/12 12:53:28;;;;;;;10.30;5.90;;;13.60;70.00;;;;;;4841709;29;20238;-87
2021/04/12 12:56:02;;;;;;;12.57;7.13;;;13.10;70.10;;;;;;4847018;29;20198;-88
2021/04/12 12:58:30;;;;;;;10.07;6.30;;;13.10;70.90;;;;;;4851878;29;20225;-87
2021/04/12 13:01:02;;;;;;;8.67;5.80;;;13.00;72.90;;;;;;4856251;29;20736;-92
2021/04/12 13:03:31;;;;;;;9.57;5.83;;;12.80;71.20;;;;;;4848587;29;20273;-88
2021/04/12 13:05:59;;;;;;;9.63;6.30;;;12.80;72.40;;;;;;4848381;29;20198;-88
2021/04/12 13:08:28;;;;;;;10.00;5.90;;;12.50;73.30;;;;;;4862742;29;20198;-87
2021/04/12 13:10:55;;;;;;;8.90;4.97;;;12.40;72.10;;;;;;4850950;29;20280;-85
2021/04/12 13:13:34;;;;;;;8.73;5.30;;;11.80;77.50;;;;;;4845915;29;20233;-87
2021/04/12 13:16:18;;;;;;;7.37;4.90;;;11.50;80.10;;;;;;4856665;29;20200;-87
2021/04/12 13:18:55;;;;;;;9.73;4.80;;;11.40;80.20;;;;;;4867955;29;20199;-87
2021/04/12 13:21:25;;;;;;;6.60;5.20;;;11.20;81.50;;;;;;4845921;29;20292;-87
2021/04/12 14:27:26;;;;;;;6.53;5.07;;;17.10;65.00;;;;;;5796065;23;20626;-91
2021/04/12 14:30:24;;;;;;;5.93;5.23;;;15.90;71.30;;;;;;4861434;29;20270;-90
2021/04/12 14:33:04;;;;;;;7.60;5.53;;;15.40;72.90;;;;;;4842524;29;20199;-89
2021/04/12 14:35:40;;;;;;;6.37;5.67;;;15.20;67.50;;;;;;4850472;29;20179;-89
2021/04/12 14:38:21;;;;;;;8.07;5.73;;;14.60;71.30;;;;;;4860719;29;20626;-89
2021/04/12 14:41:02;;;;;;;7.03;5.70;;;14.50;67.80;;;;;;4844018;29;20193;-88
2021/04/12 14:43:40;;;;;;;8.70;5.77;;;13.70;70.90;;;;;;4844880;29;20189;-88
2021/04/12 14:46:29;;;;;;;8.00;5.60;;;13.40;74.90;;;;;;4860763;29;20186;-88
2021/04/12 14:49:06;;;;;;;8.10;5.90;;;13.30;74.50;;;;;;4844888;29;20671;-88
2021/04/12 14:51:48;;;;;;;6.30;5.70;;;13.00;74.70;;;;;;4844788;29;20253;-88
2021/04/12 14:54:35;;;;;;;7.83;5.70;;;13.20;73.00;;;;;;4845094;29;20198;-87
2021/04/12 14:57:11;;;;;;;8.13;5.97;;;12.90;73.70;;;;;;4845125;29;20182;-88
2021/04/12 14:59:57;;;;;;;8.00;6.03;;;12.70;74.90;;;;;;4845223;29;20194;-89
2021/04/12 15:02:50;;;;;;;7.83;6.00;;;12.60;76.10;;;;;;4846373;29;20657;-88
2021/04/12 15:05:25;;;;;;;8.60;5.87;;;12.60;76.70;;;;;;4844982;29;20183;-88
2021/04/12 15:07:53;;;;;;;10.63;6.10;;;12.50;76.20;;;;;;4843983;29;20182;-88
2021/04/12 15:10:24;;;;;;;7.33;6.43;;;12.60;75.50;;;;;;4843551;29;20632;-88
2021/04/12 15:12:56;;;;;;;8.70;6.47;;;12.80;75.80;;;;;;4844503;29;20202;-88
2021/04/12 15:15:31;;;;;;;8.53;6.80;;;12.90;74.40;;;;;;4844873;29;20182;-88
2021/04/12 15:18:14;;;;;;;7.50;6.33;;;13.00;72.20;;;;;;4837354;29;20207;-88
2021/04/12 15:20:50;;;;;;;7.30;6.30;;;12.60;72.70;;;;;;4848584;29;20191;-88
2021/04/12 15:23:24;;;;;;;8.30;5.90;;;12.20;74.80;;;;;;4844198;29;20190;-89
2021/04/12 15:25:49;;;;;;;11.10;6.63;;;12.20;74.40;;;;;;4860125;29;20461;-88
2021/04/12 15:28:28;;;;;;;10.43;6.17;;;12.10;76.40;;;;;;4859556;29;20728;-87
2021/04/12 15:31:03;;;;;;;9.73;6.10;;;11.80;79.30;;;;;;4844121;29;20229;-88
2021/04/12 15:33:46;;;;;;;7.70;5.50;;;11.60;80.40;;;;;;4859819;29;20178;-88
2021/04/12 15:36:32;;;;;;;8.20;6.23;;;11.60;80.20;;;;;;4844514;29;20189;-88
2021/04/12 15:39:06;;;;;;;11.67;6.20;;;11.50;80.70;;;;;;4860237;29;20663;-88
2021/04/12 15:41:33;;;;;;;8.80;6.23;;;11.50;82.10;;;;;;4845064;29;20186;-88